sensor_id;sensor_type;location;lat;lon;timestamp;P1;durP1;ratioP1;P2;durP2;ratioP2
16502;SDS011;53067;48.114;11.694;2023-03-16T00:00:17;6.70;;;5.20;;
16502;SDS011;53067;48.114;11.694;2023-03-16T00:02:45;8.90;;;5.80;;
16502;SDS011;53067;48.114;11.694;2023-03-16T00:05:12;5.90;;;5.07;;
16502;SDS011;53067;48.114;11.694;2023-03-16T00:07:41;7.10;;;5.33;;
16502;SDS011;53067;48.114;11.694;2023-03-16T00:10:14;7.00;;;5.67;;
16502;SDS011;53067;48.114;11.694;2023-03-16T00:12:38;5.77;;;4.57;;
16502;SDS011;53067;48.114;11.694;2023-03-16T00:15:08;6.17;;;5.37;;
16502;SDS011;53067;48.114;11.694;2023-03-16T00:17:37;6.37;;;5.57;;
16502;SDS011;53067;48.114;11.694;2023-03-16T00:20:05;6.30;;;5.27;;
16502;SDS011;53067;48.114;11.694;2023-03-16T00:22:33;6.60;;;5.37;;
16502;SDS011;53067;48.114;11.694;2023-03-16T00:25:01;6.40;;;5.20;;
16502;SDS011;53067;48.114;11.694;2023-03-16T00:27:29;5.90;;;5.23;;
16502;SDS011;53067;48.114;11.694;2023-03-16T00:29:56;6.07;;;5.30;;
16502;SDS011;53067;48.114;11.694;2023-03-16T00:32:28;6.30;;;5.70;;
16502;SDS011;53067;48.114;11.694;2023-03-16T00:34:57;6.33;;;5.73;;
16502;SDS011;53067;48.114;11.694;2023-03-16T00:37:27;6.63;;;5.47;;
16502;SDS011;53067;48.114;11.694;2023-03-16T00:39:56;7.37;;;5.93;;
16502;SDS011;53067;48.114;11.694;2023-03-16T00:42:43;6.53;;;5.77;;
16502;SDS011;53067;48.114;11.694;2023-03-16T00:45:11;6.17;;;5.50;;
16502;SDS011;53067;48.114;11.694;2023-03-16T00:47:38;8.13;;;5.57;;
16502;SDS011;53067;48.114;11.694;2023-03-16T00:50:07;7.97;;;5.60;;
16502;SDS011;53067;48.114;11.694;2023-03-16T00:52:34;5.80;;;5.30;;
16502;SDS011;53067;48.114;11.694;2023-03-16T00:55:02;5.70;;;5.00;;
16502;SDS011;53067;48.114;11.694;2023-03-16T00:57:30;5.60;;;5.20;;
16502;SDS011;53067;48.114;11.694;2023-03-16T00:59:57;7.10;;;5.70;;
16502;SDS011;53067;48.114;11.694;2023-03-16T01:02:26;5.90;;;5.30;;
16502;SDS011;53067;48.114;11.694;2023-03-16T01:04:53;7.60;;;5.43;;
16502;SDS011;53067;48.114;11.694;2023-03-16T01:07:21;5.80;;;5.20;;
16502;SDS011;53067;48.114;11.694;2023-03-16T01:09:49;7.13;;;5.40;;
16502;SDS011;53067;48.114;11.694;2023-03-16T01:12:17;6.90;;;6.20;;
16502;SDS011;53067;48.114;11.694;2023-03-16T01:14:45;6.17;;;5.57;;
16502;SDS011;53067;48.114;11.694;2023-03-16T01:17:14;6.33;;;5.73;;
16502;SDS011;53067;48.114;11.694;2023-03-16T01:19:43;5.73;;;5.13;;
16502;SDS011;53067;48.114;11.694;2023-03-16T01:22:11;6.43;;;5.40;;
16502;SDS011;53067;48.114;11.694;2023-03-16T01:24:41;6.57;;;5.50;;
16502;SDS011;53067;48.114;11.694;2023-03-16T01:27:10;7.43;;;4.97;;
16502;SDS011;53067;48.114;11.694;2023-03-16T01:29:39;7.00;;;5.17;;
16502;SDS011;53067;48.114;11.694;2023-03-16T01:32:08;5.90;;;5.30;;
16502;SDS011;53067;48.114;11.694;2023-03-16T01:34:36;7.07;;;5.47;;
16502;SDS011;53067;48.114;11.694;2023-03-16T01:37:04;8.87;;;5.60;;
16502;SDS011;53067;48.114;11.694;2023-03-16T01:39:32;7.03;;;5.87;;
16502;SDS011;53067;48.114;11.694;2023-03-16T01:41:59;7.60;;;6.63;;
16502;SDS011;53067;48.114;11.694;2023-03-16T01:44:27;8.43;;;7.10;;
16502;SDS011;53067;48.114;11.694;2023-03-16T01:46:56;7.27;;;6.40;;
16502;SDS011;53067;48.114;11.694;2023-03-16T01:49:33;8.43;;;6.13;;
16502;SDS011;53067;48.114;11.694;2023-03-16T01:52:20;7.10;;;6.10;;
16502;SDS011;53067;48.114;11.694;2023-03-16T01:54:57;5.70;;;5.20;;
16502;SDS011;53067;48.114;11.694;2023-03-16T01:57:27;7.20;;;5.67;;
16502;SDS011;53067;48.114;11.694;2023-03-16T02:00:09;10.07;;;5.33;;
16502;SDS011;53067;48.114;11.694;2023-03-16T02:02:50;6.57;;;5.93;;
16502;SDS011;53067;48.114;11.694;2023-03-16T02:05:23;6.97;;;4.80;;
16502;SDS011;53067;48.114;11.694;2023-03-16T02:08:04;6.33;;;5.60;;
16502;SDS011;53067;48.114;11.694;2023-03-16T02:10:33;9.70;;;5.77;;
16502;SDS011;53067;48.114;11.694;2023-03-16T02:13:02;5.50;;;5.00;;
16502;SDS011;53067;48.114;11.694;2023-03-16T02:15:30;6.67;;;5.37;;
16502;SDS011;53067;48.114;11.694;2023-03-16T02:17:59;6.07;;;5.57;;
16502;SDS011;53067;48.114;11.694;2023-03-16T02:23:17;6.03;;;5.50;;
16502;SDS011;53067;48.114;11.694;2023-03-16T02:25:49;6.13;;;5.53;;
16502;SDS011;53067;48.114;11.694;2023-03-16T02:31:24;6.27;;;5.67;;
16502;SDS011;53067;48.114;11.694;2023-03-16T02:33:52;6.07;;;5.30;;
16502;SDS011;53067;48.114;11.694;2023-03-16T02:36:21;5.80;;;5.30;;
16502;SDS011;53067;48.114;11.694;2023-03-16T02:38:48;7.63;;;5.50;;
16502;SDS011;53067;48.114;11.694;2023-03-16T02:41:17;5.93;;;5.43;;
16502;SDS011;53067;48.114;11.694;2023-03-16T02:43:47;6.93;;;5.87;;
16502;SDS011;53067;48.114;11.694;2023-03-16T02:46:26;7.90;;;5.63;;
16502;SDS011;53067;48.114;11.694;2023-03-16T02:52:00;8.13;;;6.40;;
16502;SDS011;53067;48.114;11.694;2023-03-16T02:54:28;9.90;;;6.73;;
16502;SDS011;53067;48.114;11.694;2023-03-16T02:56:56;8.27;;;6.40;;
16502;SDS011;53067;48.114;11.694;2023-03-16T02:59:23;8.73;;;6.80;;
16502;SDS011;53067;48.114;11.694;2023-03-16T03:01:51;9.10;;;7.37;;
16502;SDS011;53067;48.114;11.694;2023-03-16T03:04:18;6.53;;;5.80;;
16502;SDS011;53067;48.114;11.694;2023-03-16T03:06:48;7.80;;;6.63;;
16502;SDS011;53067;48.114;11.694;2023-03-16T03:09:16;7.30;;;6.57;;
16502;SDS011;53067;48.114;11.694;2023-03-16T03:11:45;8.77;;;6.73;;
16502;SDS011;53067;48.114;11.694;2023-03-16T03:14:13;8.93;;;6.57;;
16502;SDS011;53067;48.114;11.694;2023-03-16T03:16:41;10.80;;;7.03;;
16502;SDS011;53067;48.114;11.694;2023-03-16T03:19:11;6.80;;;6.10;;
16502;SDS011;53067;48.114;11.694;2023-03-16T03:21:39;7.07;;;6.37;;
16502;SDS011;53067;48.114;11.694;2023-03-16T03:24:07;7.13;;;6.07;;
16502;SDS011;53067;48.114;11.694;2023-03-16T03:26:35;7.17;;;6.47;;
16502;SDS011;53067;48.114;11.694;2023-03-16T03:29:04;7.97;;;6.17;;
16502;SDS011;53067;48.114;11.694;2023-03-16T03:31:31;7.77;;;6.00;;
16502;SDS011;53067;48.114;11.694;2023-03-16T03:33:59;6.10;;;5.50;;
16502;SDS011;53067;48.114;11.694;2023-03-16T03:36:28;5.60;;;5.10;;
16502;SDS011;53067;48.114;11.694;2023-03-16T03:38:55;7.47;;;6.07;;
16502;SDS011;53067;48.114;11.694;2023-03-16T03:41:23;7.63;;;6.40;;
16502;SDS011;53067;48.114;11.694;2023-03-16T03:43:50;6.47;;;5.87;;
16502;SDS011;53067;48.114;11.694;2023-03-16T03:46:18;7.53;;;5.90;;
16502;SDS011;53067;48.114;11.694;2023-03-16T03:48:45;8.10;;;6.30;;
16502;SDS011;53067;48.114;11.694;2023-03-16T03:51:13;6.90;;;6.20;;
16502;SDS011;53067;48.114;11.694;2023-03-16T03:53:40;10.87;;;7.43;;
16502;SDS011;53067;48.114;11.694;2023-03-16T03:56:08;8.43;;;6.70;;
16502;SDS011;53067;48.114;11.694;2023-03-16T03:58:36;9.77;;;6.73;;
16502;SDS011;53067;48.114;11.694;2023-03-16T04:01:03;8.43;;;6.77;;
16502;SDS011;53067;48.114;11.694;2023-03-16T04:03:31;8.03;;;6.20;;
16502;SDS011;53067;48.114;11.694;2023-03-16T04:05:59;6.90;;;6.07;;
16502;SDS011;53067;48.114;11.694;2023-03-16T04:11:14;6.17;;;5.57;;
16502;SDS011;53067;48.114;11.694;2023-03-16T04:13:41;6.37;;;5.17;;
16502;SDS011;53067;48.114;11.694;2023-03-16T04:16:09;8.53;;;5.87;;
16502;SDS011;53067;48.114;11.694;2023-03-16T04:21:26;6.93;;;5.87;;
16502;SDS011;53067;48.114;11.694;2023-03-16T04:23:53;6.13;;;5.57;;
16502;SDS011;53067;48.114;11.694;2023-03-16T04:26:21;7.10;;;5.30;;
16502;SDS011;53067;48.114;11.694;2023-03-16T04:28:50;6.13;;;4.67;;
16502;SDS011;53067;48.114;11.694;2023-03-16T04:31:17;5.77;;;5.27;;
16502;SDS011;53067;48.114;11.694;2023-03-16T04:33:45;5.27;;;4.77;;
16502;SDS011;53067;48.114;11.694;2023-03-16T04:36:13;5.10;;;4.57;;
16502;SDS011;53067;48.114;11.694;2023-03-16T04:38:40;6.93;;;5.03;;
16502;SDS011;53067;48.114;11.694;2023-03-16T04:41:08;5.37;;;4.77;;
16502;SDS011;53067;48.114;11.694;2023-03-16T04:43:36;5.80;;;5.00;;
16502;SDS011;53067;48.114;11.694;2023-03-16T04:46:03;5.07;;;4.40;;
16502;SDS011;53067;48.114;11.694;2023-03-16T04:48:31;5.53;;;4.57;;
16502;SDS011;53067;48.114;11.694;2023-03-16T04:50:59;6.00;;;5.33;;
16502;SDS011;53067;48.114;11.694;2023-03-16T04:53:33;7.27;;;5.00;;
16502;SDS011;53067;48.114;11.694;2023-03-16T04:55:57;6.63;;;5.20;;
16502;SDS011;53067;48.114;11.694;2023-03-16T04:58:26;7.10;;;5.33;;
16502;SDS011;53067;48.114;11.694;2023-03-16T05:00:54;5.97;;;4.93;;
16502;SDS011;53067;48.114;11.694;2023-03-16T05:03:21;6.40;;;5.77;;
16502;SDS011;53067;48.114;11.694;2023-03-16T05:05:49;5.93;;;5.43;;
16502;SDS011;53067;48.114;11.694;2023-03-16T05:08:17;7.17;;;5.70;;
16502;SDS011;53067;48.114;11.694;2023-03-16T05:10:44;7.73;;;5.77;;
16502;SDS011;53067;48.114;11.694;2023-03-16T05:13:13;7.90;;;5.37;;
16502;SDS011;53067;48.114;11.694;2023-03-16T05:15:40;6.07;;;5.47;;
16502;SDS011;53067;48.114;11.694;2023-03-16T05:18:08;8.10;;;6.27;;
16502;SDS011;53067;48.114;11.694;2023-03-16T05:20:35;7.20;;;6.20;;
16502;SDS011;53067;48.114;11.694;2023-03-16T05:23:03;7.43;;;6.10;;
16502;SDS011;53067;48.114;11.694;2023-03-16T05:25:32;6.80;;;6.07;;
16502;SDS011;53067;48.114;11.694;2023-03-16T05:28:00;7.83;;;6.00;;
16502;SDS011;53067;48.114;11.694;2023-03-16T05:30:28;7.57;;;6.77;;
16502;SDS011;53067;48.114;11.694;2023-03-16T05:32:56;7.83;;;6.63;;
16502;SDS011;53067;48.114;11.694;2023-03-16T05:35:23;8.00;;;6.47;;
16502;SDS011;53067;48.114;11.694;2023-03-16T05:37:52;7.77;;;6.67;;
16502;SDS011;53067;48.114;11.694;2023-03-16T05:40:20;8.80;;;6.83;;
16502;SDS011;53067;48.114;11.694;2023-03-16T05:42:48;6.53;;;5.90;;
16502;SDS011;53067;48.114;11.694;2023-03-16T05:45:18;8.17;;;6.30;;
16502;SDS011;53067;48.114;11.694;2023-03-16T05:47:47;7.07;;;6.30;;
16502;SDS011;53067;48.114;11.694;2023-03-16T05:50:14;7.43;;;6.63;;
16502;SDS011;53067;48.114;11.694;2023-03-16T05:52:43;10.57;;;6.77;;
16502;SDS011;53067;48.114;11.694;2023-03-16T05:55:12;7.90;;;6.53;;
16502;SDS011;53067;48.114;11.694;2023-03-16T05:57:41;6.97;;;6.27;;
16502;SDS011;53067;48.114;11.694;2023-03-16T06:00:10;8.53;;;7.47;;
16502;SDS011;53067;48.114;11.694;2023-03-16T06:02:41;9.07;;;7.43;;
16502;SDS011;53067;48.114;11.694;2023-03-16T06:05:09;9.03;;;7.57;;
16502;SDS011;53067;48.114;11.694;2023-03-16T06:07:37;10.87;;;8.03;;
16502;SDS011;53067;48.114;11.694;2023-03-16T06:10:04;7.60;;;6.77;;
16502;SDS011;53067;48.114;11.694;2023-03-16T06:12:32;9.93;;;7.80;;
16502;SDS011;53067;48.114;11.694;2023-03-16T06:15:00;9.73;;;7.70;;
16502;SDS011;53067;48.114;11.694;2023-03-16T06:17:30;9.17;;;7.87;;
16502;SDS011;53067;48.114;11.694;2023-03-16T06:19:58;8.37;;;7.57;;
16502;SDS011;53067;48.114;11.694;2023-03-16T06:22:26;11.27;;;8.50;;
16502;SDS011;53067;48.114;11.694;2023-03-16T06:24:55;9.47;;;7.93;;
16502;SDS011;53067;48.114;11.694;2023-03-16T06:27:22;13.03;;;8.80;;
16502;SDS011;53067;48.114;11.694;2023-03-16T06:29:51;11.93;;;9.20;;
16502;SDS011;53067;48.114;11.694;2023-03-16T06:32:18;12.80;;;8.97;;
16502;SDS011;53067;48.114;11.694;2023-03-16T06:34:47;16.00;;;10.47;;
16502;SDS011;53067;48.114;11.694;2023-03-16T06:37:14;15.33;;;9.23;;
16502;SDS011;53067;48.114;11.694;2023-03-16T06:39:42;12.70;;;9.77;;
16502;SDS011;53067;48.114;11.694;2023-03-16T06:42:10;16.40;;;9.87;;
16502;SDS011;53067;48.114;11.694;2023-03-16T06:44:38;15.77;;;9.67;;
16502;SDS011;53067;48.114;11.694;2023-03-16T06:47:06;12.50;;;9.23;;
16502;SDS011;53067;48.114;11.694;2023-03-16T06:49:34;15.23;;;9.47;;
16502;SDS011;53067;48.114;11.694;2023-03-16T06:52:01;14.17;;;8.83;;
16502;SDS011;53067;48.114;11.694;2023-03-16T06:54:29;12.40;;;9.00;;
16502;SDS011;53067;48.114;11.694;2023-03-16T06:56:58;12.70;;;9.47;;
16502;SDS011;53067;48.114;11.694;2023-03-16T06:59:26;13.27;;;10.03;;
16502;SDS011;53067;48.114;11.694;2023-03-16T07:01:54;12.97;;;9.97;;
16502;SDS011;53067;48.114;11.694;2023-03-16T07:04:22;10.53;;;8.83;;
16502;SDS011;53067;48.114;11.694;2023-03-16T07:06:49;10.40;;;9.10;;
16502;SDS011;53067;48.114;11.694;2023-03-16T07:09:17;11.77;;;9.27;;
16502;SDS011;53067;48.114;11.694;2023-03-16T07:11:44;11.70;;;9.30;;
16502;SDS011;53067;48.114;11.694;2023-03-16T07:14:12;11.37;;;8.87;;
16502;SDS011;53067;48.114;11.694;2023-03-16T07:16:40;9.90;;;8.33;;
16502;SDS011;53067;48.114;11.694;2023-03-16T07:19:07;12.63;;;9.30;;
16502;SDS011;53067;48.114;11.694;2023-03-16T07:21:35;11.13;;;8.47;;
16502;SDS011;53067;48.114;11.694;2023-03-16T07:24:04;10.43;;;7.90;;
16502;SDS011;53067;48.114;11.694;2023-03-16T07:26:33;10.50;;;8.13;;
16502;SDS011;53067;48.114;11.694;2023-03-16T07:29:00;9.97;;;7.83;;
16502;SDS011;53067;48.114;11.694;2023-03-16T07:31:31;10.10;;;8.40;;
16502;SDS011;53067;48.114;11.694;2023-03-16T07:33:59;10.93;;;8.57;;
16502;SDS011;53067;48.114;11.694;2023-03-16T07:36:27;11.43;;;8.57;;
16502;SDS011;53067;48.114;11.694;2023-03-16T07:38:55;10.53;;;7.77;;
16502;SDS011;53067;48.114;11.694;2023-03-16T07:41:23;11.03;;;8.27;;
16502;SDS011;53067;48.114;11.694;2023-03-16T07:43:50;10.73;;;8.83;;
16502;SDS011;53067;48.114;11.694;2023-03-16T07:46:18;9.53;;;8.17;;
16502;SDS011;53067;48.114;11.694;2023-03-16T07:48:46;10.53;;;8.50;;
16502;SDS011;53067;48.114;11.694;2023-03-16T07:51:14;14.07;;;9.13;;
16502;SDS011;53067;48.114;11.694;2023-03-16T07:53:41;11.93;;;9.00;;
16502;SDS011;53067;48.114;11.694;2023-03-16T07:56:09;11.83;;;8.60;;
16502;SDS011;53067;48.114;11.694;2023-03-16T07:58:37;10.93;;;8.33;;
16502;SDS011;53067;48.114;11.694;2023-03-16T08:01:04;9.43;;;8.10;;
16502;SDS011;53067;48.114;11.694;2023-03-16T08:03:32;9.37;;;7.30;;
16502;SDS011;53067;48.114;11.694;2023-03-16T08:05:59;10.07;;;8.20;;
16502;SDS011;53067;48.114;11.694;2023-03-16T08:08:27;9.70;;;7.13;;
16502;SDS011;53067;48.114;11.694;2023-03-16T08:10:54;11.90;;;8.53;;
16502;SDS011;53067;48.114;11.694;2023-03-16T08:13:22;8.77;;;7.60;;
16502;SDS011;53067;48.114;11.694;2023-03-16T08:15:51;10.00;;;7.73;;
16502;SDS011;53067;48.114;11.694;2023-03-16T08:18:21;9.80;;;7.90;;
16502;SDS011;53067;48.114;11.694;2023-03-16T08:20:48;9.17;;;7.50;;
16502;SDS011;53067;48.114;11.694;2023-03-16T08:23:16;9.07;;;7.40;;
16502;SDS011;53067;48.114;11.694;2023-03-16T08:25:44;9.37;;;8.00;;
16502;SDS011;53067;48.114;11.694;2023-03-16T08:28:13;9.67;;;8.17;;
16502;SDS011;53067;48.114;11.694;2023-03-16T08:30:44;12.97;;;8.03;;
16502;SDS011;53067;48.114;11.694;2023-03-16T08:33:13;11.00;;;7.63;;
16502;SDS011;53067;48.114;11.694;2023-03-16T08:35:43;9.80;;;8.20;;
16502;SDS011;53067;48.114;11.694;2023-03-16T08:38:10;9.33;;;7.63;;
16502;SDS011;53067;48.114;11.694;2023-03-16T08:40:39;10.17;;;7.50;;
16502;SDS011;53067;48.114;11.694;2023-03-16T08:43:11;8.13;;;7.33;;
16502;SDS011;53067;48.114;11.694;2023-03-16T08:45:41;9.10;;;7.97;;
16502;SDS011;53067;48.114;11.694;2023-03-16T08:48:10;9.57;;;7.83;;
16502;SDS011;53067;48.114;11.694;2023-03-16T08:50:39;9.70;;;8.70;;
16502;SDS011;53067;48.114;11.694;2023-03-16T08:53:09;12.30;;;9.27;;
16502;SDS011;53067;48.114;11.694;2023-03-16T08:55:38;9.20;;;7.90;;
16502;SDS011;53067;48.114;11.694;2023-03-16T08:58:07;9.63;;;7.73;;
16502;SDS011;53067;48.114;11.694;2023-03-16T09:00:35;9.70;;;8.23;;
16502;SDS011;53067;48.114;11.694;2023-03-16T09:03:03;10.77;;;7.97;;
16502;SDS011;53067;48.114;11.694;2023-03-16T09:05:31;9.13;;;7.70;;
16502;SDS011;53067;48.114;11.694;2023-03-16T09:07:59;9.10;;;7.03;;
16502;SDS011;53067;48.114;11.694;2023-03-16T09:10:28;8.83;;;7.33;;
16502;SDS011;53067;48.114;11.694;2023-03-16T09:12:57;9.70;;;7.40;;
16502;SDS011;53067;48.114;11.694;2023-03-16T09:15:25;9.30;;;7.50;;
16502;SDS011;53067;48.114;11.694;2023-03-16T09:17:53;8.63;;;7.47;;
16502;SDS011;53067;48.114;11.694;2023-03-16T09:20:22;8.40;;;7.60;;
16502;SDS011;53067;48.114;11.694;2023-03-16T09:22:50;8.47;;;7.57;;
16502;SDS011;53067;48.114;11.694;2023-03-16T09:25:18;9.27;;;7.60;;
16502;SDS011;53067;48.114;11.694;2023-03-16T09:27:46;7.47;;;6.77;;
16502;SDS011;53067;48.114;11.694;2023-03-16T09:30:13;9.53;;;7.00;;
16502;SDS011;53067;48.114;11.694;2023-03-16T09:32:41;7.90;;;7.20;;
16502;SDS011;53067;48.114;11.694;2023-03-16T09:35:09;8.57;;;7.43;;
16502;SDS011;53067;48.114;11.694;2023-03-16T09:37:39;9.93;;;7.37;;
16502;SDS011;53067;48.114;11.694;2023-03-16T09:40:06;7.83;;;6.80;;
16502;SDS011;53067;48.114;11.694;2023-03-16T09:42:36;8.07;;;7.27;;
16502;SDS011;53067;48.114;11.694;2023-03-16T09:45:22;7.90;;;7.10;;
16502;SDS011;53067;48.114;11.694;2023-03-16T09:47:55;7.93;;;7.10;;
16502;SDS011;53067;48.114;11.694;2023-03-16T09:50:27;7.40;;;6.70;;
16502;SDS011;53067;48.114;11.694;2023-03-16T09:52:59;7.57;;;6.87;;
16502;SDS011;53067;48.114;11.694;2023-03-16T09:55:31;8.43;;;7.03;;
16502;SDS011;53067;48.114;11.694;2023-03-16T09:58:26;7.40;;;6.70;;
16502;SDS011;53067;48.114;11.694;2023-03-16T10:04:25;7.63;;;6.87;;
16502;SDS011;53067;48.114;11.694;2023-03-16T10:07:35;7.23;;;6.33;;
16502;SDS011;53067;48.114;11.694;2023-03-16T10:12:48;6.43;;;5.83;;
16502;SDS011;53067;48.114;11.694;2023-03-16T10:15:15;8.30;;;7.10;;
16502;SDS011;53067;48.114;11.694;2023-03-16T10:17:50;7.37;;;6.77;;
16502;SDS011;53067;48.114;11.694;2023-03-16T10:20:20;7.40;;;6.67;;
16502;SDS011;53067;48.114;11.694;2023-03-16T10:22:50;7.33;;;6.60;;
16502;SDS011;53067;48.114;11.694;2023-03-16T10:25:24;6.70;;;6.00;;
16502;SDS011;53067;48.114;11.694;2023-03-16T10:27:56;7.47;;;6.50;;
16502;SDS011;53067;48.114;11.694;2023-03-16T10:30:27;7.23;;;6.53;;
16502;SDS011;53067;48.114;11.694;2023-03-16T10:38:26;7.50;;;6.80;;
16502;SDS011;53067;48.114;11.694;2023-03-16T10:41:00;7.57;;;6.70;;
16502;SDS011;53067;48.114;11.694;2023-03-16T10:43:28;8.80;;;7.23;;
16502;SDS011;53067;48.114;11.694;2023-03-16T10:45:57;8.17;;;7.37;;
16502;SDS011;53067;48.114;11.694;2023-03-16T10:48:29;8.03;;;6.87;;
16502;SDS011;53067;48.114;11.694;2023-03-16T10:50:59;7.43;;;6.67;;
16502;SDS011;53067;48.114;11.694;2023-03-16T10:53:30;7.27;;;6.57;;
16502;SDS011;53067;48.114;11.694;2023-03-16T10:56:01;8.13;;;7.33;;
16502;SDS011;53067;48.114;11.694;2023-03-16T10:58:39;8.23;;;6.93;;
16502;SDS011;53067;48.114;11.694;2023-03-16T11:01:14;7.93;;;7.13;;
16502;SDS011;53067;48.114;11.694;2023-03-16T11:03:39;8.60;;;7.80;;
16502;SDS011;53067;48.114;11.694;2023-03-16T11:06:14;7.43;;;6.83;;
16502;SDS011;53067;48.114;11.694;2023-03-16T11:08:41;7.80;;;7.10;;
16502;SDS011;53067;48.114;11.694;2023-03-16T11:11:10;7.93;;;7.20;;
16502;SDS011;53067;48.114;11.694;2023-03-16T11:13:54;7.37;;;6.67;;
16502;SDS011;53067;48.114;11.694;2023-03-16T11:16:26;10.20;;;7.10;;
16502;SDS011;53067;48.114;11.694;2023-03-16T11:22:12;7.47;;;6.70;;
16502;SDS011;53067;48.114;11.694;2023-03-16T11:32:47;7.00;;;6.50;;
16502;SDS011;53067;48.114;11.694;2023-03-16T11:38:18;5.87;;;5.37;;
16502;SDS011;53067;48.114;11.694;2023-03-16T11:41:09;9.20;;;8.40;;
16502;SDS011;53067;48.114;11.694;2023-03-16T11:54:58;5.20;;;4.80;;
16502;SDS011;53067;48.114;11.694;2023-03-16T12:00:02;5.30;;;5.00;;
16502;SDS011;53067;48.114;11.694;2023-03-16T12:02:57;7.05;;;5.10;;
16502;SDS011;53067;48.114;11.694;2023-03-16T12:05:45;5.50;;;5.10;;
16502;SDS011;53067;48.114;11.694;2023-03-16T12:11:52;6.10;;;5.58;;
16502;SDS011;53067;48.114;11.694;2023-03-16T12:17:12;4.92;;;4.62;;
16502;SDS011;53067;48.114;11.694;2023-03-16T12:19:54;5.75;;;5.25;;
16502;SDS011;53067;48.114;11.694;2023-03-16T12:22:27;5.87;;;5.40;;
16502;SDS011;53067;48.114;11.694;2023-03-16T12:24:57;5.42;;;4.97;;
16502;SDS011;53067;48.114;11.694;2023-03-16T12:27:28;4.55;;;4.25;;
16502;SDS011;53067;48.114;11.694;2023-03-16T12:33:00;4.50;;;4.20;;
16502;SDS011;53067;48.114;11.694;2023-03-16T12:46:54;3.55;;;3.35;;
16502;SDS011;53067;48.114;11.694;2023-03-16T12:49:25;4.20;;;3.80;;
16502;SDS011;53067;48.114;11.694;2023-03-16T12:52:03;3.92;;;3.62;;
16502;SDS011;53067;48.114;11.694;2023-03-16T12:54:34;4.92;;;4.42;;
16502;SDS011;53067;48.114;11.694;2023-03-16T12:57:04;4.05;;;3.75;;
16502;SDS011;53067;48.114;11.694;2023-03-16T12:59:40;3.40;;;3.20;;
16502;SDS011;53067;48.114;11.694;2023-03-16T13:02:23;3.52;;;3.33;;
16502;SDS011;53067;48.114;11.694;2023-03-16T13:04:48;3.80;;;3.58;;
16502;SDS011;53067;48.114;11.694;2023-03-16T13:07:24;3.72;;;3.45;;
16502;SDS011;53067;48.114;11.694;2023-03-16T13:09:54;3.15;;;2.95;;
16502;SDS011;53067;48.114;11.694;2023-03-16T13:12:25;2.80;;;2.60;;
16502;SDS011;53067;48.114;11.694;2023-03-16T13:14:58;2.33;;;2.22;;
16502;SDS011;53067;48.114;11.694;2023-03-16T13:17:28;2.92;;;2.72;;
16502;SDS011;53067;48.114;11.694;2023-03-16T13:19:57;2.98;;;2.87;;
16502;SDS011;53067;48.114;11.694;2023-03-16T13:22:46;3.27;;;2.98;;
16502;SDS011;53067;48.114;11.694;2023-03-16T13:25:20;2.75;;;2.60;;
16502;SDS011;53067;48.114;11.694;2023-03-16T13:27:51;2.40;;;2.27;;
16502;SDS011;53067;48.114;11.694;2023-03-16T13:30:35;2.80;;;2.60;;
16502;SDS011;53067;48.114;11.694;2023-03-16T13:33:20;2.55;;;2.35;;
16502;SDS011;53067;48.114;11.694;2023-03-16T13:35:50;3.20;;;2.92;;
16502;SDS011;53067;48.114;11.694;2023-03-16T13:38:20;2.42;;;2.25;;
16502;SDS011;53067;48.114;11.694;2023-03-16T13:40:51;3.20;;;1.67;;
16502;SDS011;53067;48.114;11.694;2023-03-16T13:43:22;1.98;;;1.87;;
16502;SDS011;53067;48.114;11.694;2023-03-16T13:45:53;2.25;;;2.12;;
16502;SDS011;53067;48.114;11.694;2023-03-16T13:48:21;2.35;;;2.20;;
16502;SDS011;53067;48.114;11.694;2023-03-16T13:50:52;2.62;;;2.42;;
16502;SDS011;53067;48.114;11.694;2023-03-16T13:53:27;2.10;;;2.00;;
16502;SDS011;53067;48.114;11.694;2023-03-16T13:55:58;2.33;;;2.22;;
16502;SDS011;53067;48.114;11.694;2023-03-16T13:58:31;2.50;;;2.40;;
16502;SDS011;53067;48.114;11.694;2023-03-16T14:01:10;2.50;;;2.30;;
16502;SDS011;53067;48.114;11.694;2023-03-16T14:03:39;2.62;;;2.45;;
16502;SDS011;53067;48.114;11.694;2023-03-16T14:06:20;2.50;;;2.40;;
16502;SDS011;53067;48.114;11.694;2023-03-16T14:08:52;2.77;;;2.55;;
16502;SDS011;53067;48.114;11.694;2023-03-16T14:11:26;2.60;;;2.40;;
16502;SDS011;53067;48.114;11.694;2023-03-16T14:13:54;2.20;;;2.10;;
16502;SDS011;53067;48.114;11.694;2023-03-16T14:16:24;2.20;;;2.10;;
16502;SDS011;53067;48.114;11.694;2023-03-16T14:19:02;2.30;;;2.20;;
16502;SDS011;53067;48.114;11.694;2023-03-16T14:24:27;1.90;;;1.80;;
16502;SDS011;53067;48.114;11.694;2023-03-16T14:27:04;2.23;;;2.00;;
16502;SDS011;53067;48.114;11.694;2023-03-16T14:29:30;4.23;;;2.03;;
16502;SDS011;53067;48.114;11.694;2023-03-16T14:31:58;2.15;;;2.05;;
16502;SDS011;53067;48.114;11.694;2023-03-16T14:34:28;2.70;;;2.40;;
16502;SDS011;53067;48.114;11.694;2023-03-16T14:37:04;2.30;;;2.20;;
16502;SDS011;53067;48.114;11.694;2023-03-16T14:39:34;2.30;;;2.10;;
16502;SDS011;53067;48.114;11.694;2023-03-16T14:42:03;2.30;;;2.20;;
16502;SDS011;53067;48.114;11.694;2023-03-16T14:44:33;2.50;;;2.30;;
16502;SDS011;53067;48.114;11.694;2023-03-16T14:47:03;3.10;;;2.20;;
16502;SDS011;53067;48.114;11.694;2023-03-16T14:49:33;2.30;;;2.20;;
16502;SDS011;53067;48.114;11.694;2023-03-16T14:52:15;2.83;;;2.50;;
16502;SDS011;53067;48.114;11.694;2023-03-16T14:54:42;2.30;;;2.20;;
16502;SDS011;53067;48.114;11.694;2023-03-16T14:57:15;2.53;;;2.10;;
16502;SDS011;53067;48.114;11.694;2023-03-16T14:59:44;5.60;;;2.20;;
16502;SDS011;53067;48.114;11.694;2023-03-16T15:02:17;2.20;;;2.00;;
16502;SDS011;53067;48.114;11.694;2023-03-16T15:04:49;2.37;;;1.90;;
16502;SDS011;53067;48.114;11.694;2023-03-16T15:07:22;2.67;;;2.00;;
16502;SDS011;53067;48.114;11.694;2023-03-16T15:09:52;2.33;;;2.20;;
16502;SDS011;53067;48.114;11.694;2023-03-16T15:12:21;3.00;;;2.33;;
16502;SDS011;53067;48.114;11.694;2023-03-16T15:14:51;2.20;;;2.00;;
16502;SDS011;53067;48.114;11.694;2023-03-16T15:17:36;2.47;;;2.37;;
16502;SDS011;53067;48.114;11.694;2023-03-16T15:20:11;3.10;;;2.50;;
16502;SDS011;53067;48.114;11.694;2023-03-16T15:22:40;2.70;;;2.50;;
16502;SDS011;53067;48.114;11.694;2023-03-16T15:25:19;2.83;;;2.63;;
16502;SDS011;53067;48.114;11.694;2023-03-16T15:28:02;2.40;;;2.20;;
16502;SDS011;53067;48.114;11.694;2023-03-16T15:30:41;2.60;;;2.40;;
16502;SDS011;53067;48.114;11.694;2023-03-16T15:33:10;2.80;;;2.60;;
16502;SDS011;53067;48.114;11.694;2023-03-16T15:35:39;5.07;;;3.60;;
16502;SDS011;53067;48.114;11.694;2023-03-16T15:38:11;2.47;;;2.33;;
16502;SDS011;53067;48.114;11.694;2023-03-16T15:40:41;2.50;;;2.30;;
16502;SDS011;53067;48.114;11.694;2023-03-16T15:43:12;2.80;;;2.50;;
16502;SDS011;53067;48.114;11.694;2023-03-16T15:45:42;2.27;;;2.17;;
16502;SDS011;53067;48.114;11.694;2023-03-16T15:48:10;2.90;;;2.50;;
16502;SDS011;53067;48.114;11.694;2023-03-16T15:50:39;2.80;;;2.60;;
16502;SDS011;53067;48.114;11.694;2023-03-16T15:53:13;4.50;;;3.00;;
16502;SDS011;53067;48.114;11.694;2023-03-16T15:55:44;3.30;;;2.37;;
16502;SDS011;53067;48.114;11.694;2023-03-16T15:58:18;2.43;;;2.23;;
16502;SDS011;53067;48.114;11.694;2023-03-16T16:00:48;2.40;;;2.30;;
16502;SDS011;53067;48.114;11.694;2023-03-16T16:03:16;2.73;;;2.47;;
16502;SDS011;53067;48.114;11.694;2023-03-16T16:05:43;3.87;;;2.60;;
16502;SDS011;53067;48.114;11.694;2023-03-16T16:08:11;2.93;;;2.60;;